createdAt,value
2022-10-02T00:01:51.547Z,16.43
2022-10-02T00:04:26.319Z,16.45
2022-10-02T00:06:59.716Z,16.45
2022-10-02T00:09:32.315Z,16.41
2022-10-02T00:12:04.932Z,16.45
2022-10-02T00:14:39.099Z,16.45
2022-10-02T00:17:09.662Z,16.48
2022-10-02T00:19:40.484Z,16.52
2022-10-02T00:22:20.344Z,16.54
2022-10-02T00:24:52.420Z,16.55
2022-10-02T00:27:40.325Z,16.57
2022-10-02T00:30:14.421Z,16.55
2022-10-02T00:32:55.964Z,16.54
2022-10-02T00:36:01.075Z,16.54
2022-10-02T00:38:42.801Z,16.56
2022-10-02T00:41:32.844Z,16.56
2022-10-02T00:44:14.989Z,16.55
2022-10-02T00:46:52.568Z,16.52
2022-10-02T00:49:45.435Z,16.51
2022-10-02T00:52:29.595Z,16.49
2022-10-02T00:55:16.877Z,16.45
2022-10-02T00:57:58.131Z,16.41
2022-10-02T01:00:29.741Z,16.41
2022-10-02T01:03:17.687Z,16.39
2022-10-02T01:05:46.928Z,16.41
2022-10-02T01:08:17.649Z,16.39
2022-10-02T01:10:47.206Z,16.41
2022-10-02T01:13:17.417Z,16.39
2022-10-02T01:15:52.427Z,16.39
2022-10-02T01:18:23.179Z,16.41
2022-10-02T01:20:54.514Z,16.39
2022-10-02T01:23:30.574Z,16.38
2022-10-02T01:26:00.117Z,16.37
2022-10-02T01:28:31.622Z,16.37
2022-10-02T01:31:05.203Z,16.40
2022-10-02T01:33:36.193Z,16.40
2022-10-02T01:36:06.929Z,16.41
2022-10-02T01:38:36.103Z,16.39
2022-10-02T01:41:07.778Z,16.38
2022-10-02T01:43:39.295Z,16.41
2022-10-02T01:46:21.793Z,16.41
2022-10-02T01:48:58.135Z,16.43
2022-10-02T01:51:46.213Z,16.44
2022-10-02T01:54:24.914Z,16.47
2022-10-02T01:56:59.746Z,16.48
2022-10-02T01:59:39.717Z,16.49
2022-10-02T02:02:14.544Z,16.52
2022-10-02T02:04:50.260Z,16.54
2022-10-02T02:07:27.249Z,16.52
2022-10-02T02:10:03.284Z,16.50
2022-10-02T02:12:38.819Z,16.52
2022-10-02T02:15:14.909Z,16.58
2022-10-02T02:17:49.651Z,16.57
2022-10-02T02:20:21.192Z,16.58
2022-10-02T02:22:52.925Z,16.58
2022-10-02T02:25:24.347Z,16.60
2022-10-02T02:27:56.029Z,16.56
2022-10-02T02:30:26.326Z,16.58
2022-10-02T02:33:02.338Z,16.58
2022-10-02T02:35:35.456Z,16.59
2022-10-02T02:38:08.199Z,16.63
2022-10-02T02:40:40.583Z,16.61
2022-10-02T02:43:13.244Z,16.63
2022-10-02T02:45:48.951Z,16.65
2022-10-02T02:48:24.238Z,16.67
2022-10-02T02:50:56.756Z,16.69
2022-10-02T02:53:28.712Z,16.73
2022-10-02T02:55:59.857Z,16.71
2022-10-02T02:58:31.117Z,16.71
2022-10-02T03:00:59.713Z,16.74
2022-10-02T03:03:30.250Z,16.76
2022-10-02T03:06:04.634Z,16.73
2022-10-02T03:08:37.769Z,16.73
2022-10-02T03:11:14.073Z,16.73
2022-10-02T03:13:53.561Z,16.75
2022-10-02T03:16:32.341Z,16.75
2022-10-02T03:19:17.394Z,16.77
2022-10-02T03:21:56.791Z,16.74
2022-10-02T03:24:34.191Z,16.75
2022-10-02T03:27:10.187Z,16.75
2022-10-02T03:29:43.287Z,16.77
2022-10-02T03:32:14.623Z,16.78
2022-10-02T03:34:44.730Z,16.79
2022-10-02T03:37:15.640Z,16.82
2022-10-02T03:39:46.999Z,16.82
2022-10-02T03:42:24.913Z,16.84
2022-10-02T03:44:53.408Z,16.82
2022-10-02T03:47:24.867Z,16.84
2022-10-02T03:49:55.093Z,16.86
2022-10-02T03:52:25.882Z,16.86
2022-10-02T03:54:57.242Z,16.90
2022-10-02T03:57:28.798Z,16.94
2022-10-02T04:00:02.959Z,16.96
2022-10-02T04:02:37.242Z,16.96
2022-10-02T04:05:19.071Z,16.98
2022-10-02T04:07:52.752Z,17.02
2022-10-02T04:10:38.530Z,17.00
2022-10-02T04:13:12.666Z,16.98
2022-10-02T04:15:54.742Z,16.98
2022-10-02T04:18:26.687Z,17.00
2022-10-02T04:20:58.584Z,17.00
2022-10-02T04:23:31.940Z,16.99
2022-10-02T04:26:05.267Z,17.01
2022-10-02T04:28:40.703Z,17.00
2022-10-02T04:31:12.021Z,17.00
2022-10-02T04:33:42.880Z,17.01
2022-10-02T04:36:27.028Z,17.04
2022-10-02T04:39:14.136Z,17.06
2022-10-02T04:42:05.409Z,17.08
2022-10-02T04:44:45.813Z,17.05
2022-10-02T04:47:34.414Z,17.06
2022-10-02T04:50:17.037Z,17.07
2022-10-02T04:53:24.052Z,17.07
2022-10-02T04:56:23.462Z,17.08
2022-10-02T04:59:07.507Z,17.14
2022-10-02T05:01:51.021Z,17.19
2022-10-02T05:04:30.970Z,17.20
2022-10-02T05:07:12.242Z,17.20
2022-10-02T05:09:50.177Z,17.19
2022-10-02T05:12:32.158Z,17.14
2022-10-02T05:15:33.992Z,17.15
2022-10-02T05:18:19.145Z,17.18
2022-10-02T05:21:16.027Z,17.19
2022-10-02T05:23:57.532Z,17.22
2022-10-02T05:26:51.029Z,17.19
2022-10-02T05:29:34.550Z,17.21
2022-10-02T05:32:21.534Z,17.21
2022-10-02T05:35:00.664Z,17.24
2022-10-02T05:37:42.025Z,17.23
2022-10-02T05:40:18.754Z,17.26
2022-10-02T05:42:53.877Z,17.26
2022-10-02T05:45:27.984Z,17.29
2022-10-02T05:48:05.161Z,17.32
2022-10-02T05:50:36.381Z,17.39
2022-10-02T05:53:20.578Z,17.43
2022-10-02T05:55:52.380Z,17.41
2022-10-02T05:58:27.120Z,17.50
2022-10-02T06:01:00.757Z,17.57
2022-10-02T06:03:36.570Z,17.58
2022-10-02T06:06:15.703Z,17.57
2022-10-02T06:08:48.330Z,17.63
2022-10-02T06:11:22.505Z,17.66
2022-10-02T06:13:54.893Z,17.69
2022-10-02T06:16:28.996Z,17.74
2022-10-02T06:19:04.611Z,17.71
2022-10-02T06:21:38.446Z,17.82
2022-10-02T06:24:15.233Z,17.86
2022-10-02T06:26:48.883Z,17.88
2022-10-02T06:29:27.080Z,17.89
2022-10-02T06:32:03.802Z,17.89
2022-10-02T06:34:33.290Z,17.93
2022-10-02T06:37:34.486Z,17.98
2022-10-02T06:40:45.831Z,18.07
2022-10-02T06:43:26.937Z,18.16
2022-10-02T06:46:09.272Z,18.21
2022-10-02T06:48:43.321Z,18.25
2022-10-02T06:51:19.652Z,18.27
2022-10-02T06:54:02.738Z,18.32
2022-10-02T06:56:43.905Z,18.38
2022-10-02T06:59:24.471Z,18.43
2022-10-02T07:02:03.344Z,18.44
2022-10-02T07:04:42.490Z,18.50
2022-10-02T07:07:22.324Z,18.62
2022-10-02T07:10:02.269Z,18.67
2022-10-02T07:12:46.575Z,18.63
2022-10-02T07:15:49.845Z,18.64
2022-10-02T07:18:25.538Z,18.76
2022-10-02T07:21:05.769Z,18.82
2022-10-02T07:23:51.798Z,18.82
2022-10-02T07:26:50.191Z,18.81
2022-10-02T07:29:28.808Z,18.85
2022-10-02T07:32:27.714Z,18.90
2022-10-02T07:35:04.121Z,18.98
2022-10-02T07:37:42.680Z,19.06
2022-10-02T07:40:29.374Z,19.18
2022-10-02T07:43:10.162Z,19.25
2022-10-02T07:45:41.434Z,19.36
2022-10-02T07:48:31.432Z,19.46
2022-10-02T07:51:31.520Z,19.50
2022-10-02T07:54:13.968Z,19.59
2022-10-02T07:56:46.429Z,19.50
2022-10-02T07:59:18.680Z,19.44
2022-10-02T08:01:49.823Z,19.44
2022-10-02T08:04:26.068Z,19.48
2022-10-02T08:07:03.869Z,19.53
2022-10-02T08:09:37.844Z,19.65
2022-10-02T08:12:12.650Z,19.65
2022-10-02T08:14:44.869Z,19.68
2022-10-02T08:17:20.267Z,19.68
2022-10-02T08:19:51.284Z,19.69
2022-10-02T08:22:28.108Z,19.76
2022-10-02T08:25:04.084Z,19.79
2022-10-02T08:27:47.626Z,19.89
2022-10-02T08:30:17.788Z,19.98
2022-10-02T08:32:47.364Z,20.01
2022-10-02T08:35:20.404Z,20.07
2022-10-02T08:38:03.456Z,20.12
2022-10-02T08:41:10.819Z,20.20
2022-10-02T08:44:17.361Z,20.30
2022-10-02T08:47:27.022Z,20.35
2022-10-02T08:50:20.867Z,20.38
2022-10-02T08:53:21.745Z,20.18
2022-10-02T08:56:16.498Z,20.15
2022-10-02T08:59:28.551Z,20.12
2022-10-02T09:02:34.436Z,20.10
2022-10-02T09:05:48.933Z,20.04
2022-10-02T09:08:47.399Z,20.11
2022-10-02T09:11:44.657Z,20.28
2022-10-02T09:14:43.021Z,20.47
2022-10-02T09:17:40.464Z,20.50
2022-10-02T09:20:47.697Z,20.76
2022-10-02T09:24:03.281Z,21.03
2022-10-02T09:26:51.648Z,21.11
2022-10-02T09:29:48.139Z,21.27
2022-10-02T09:32:50.900Z,21.29
2022-10-02T09:36:08.906Z,21.26
2022-10-02T09:39:15.766Z,21.28
2022-10-02T09:42:05.702Z,21.22
2022-10-02T09:45:02.546Z,21.19
2022-10-02T09:47:54.794Z,21.15
2022-10-02T09:51:09.721Z,21.18
2022-10-02T09:54:21.159Z,21.21
2022-10-02T09:57:21.665Z,21.25
2022-10-02T10:00:13.526Z,21.13
2022-10-02T10:03:19.806Z,21.03
2022-10-02T10:06:17.760Z,21.01
2022-10-02T10:09:36.006Z,21.20
2022-10-02T10:12:18.192Z,21.34
2022-10-02T10:15:09.607Z,21.46
2022-10-02T10:18:20.198Z,21.55
2022-10-02T10:21:23.902Z,21.63
2022-10-02T10:24:29.603Z,21.56
2022-10-02T10:27:15.622Z,21.58
2022-10-02T10:30:14.443Z,21.70
2022-10-02T10:33:01.587Z,21.77
2022-10-02T10:35:48.130Z,21.81
2022-10-02T10:38:40.069Z,21.78
2022-10-02T10:41:51.758Z,21.74
2022-10-02T10:44:59.941Z,21.83
2022-10-02T10:47:48.408Z,21.98
2022-10-02T10:50:35.252Z,22.16
2022-10-02T10:53:27.915Z,22.31
2022-10-02T10:56:25.527Z,22.50
2022-10-02T10:59:08.178Z,22.66
2022-10-02T11:01:42.356Z,22.77
2022-10-02T11:04:31.498Z,22.85
2022-10-02T11:07:13.250Z,22.82
2022-10-02T11:09:57.422Z,22.77
2022-10-02T11:13:01.149Z,22.52
2022-10-02T11:16:02.668Z,22.21
2022-10-02T11:19:00.132Z,21.84
2022-10-02T11:22:07.478Z,21.52
2022-10-02T11:24:54.991Z,21.39
2022-10-02T11:27:35.776Z,21.27
2022-10-02T11:30:21.821Z,21.24
2022-10-02T11:33:10.485Z,21.34
2022-10-02T11:35:49.362Z,21.44
2022-10-02T11:38:38.224Z,21.63
2022-10-02T11:41:20.508Z,21.91
2022-10-02T11:44:01.975Z,22.11
2022-10-02T11:46:48.249Z,22.14
2022-10-02T11:49:59.750Z,22.01
2022-10-02T11:52:49.910Z,21.94
2022-10-02T11:55:29.495Z,22.18
2022-10-02T11:58:09.709Z,22.40
2022-10-02T12:01:08.730Z,22.45
2022-10-02T12:03:51.088Z,22.47
2022-10-02T12:06:33.030Z,22.55
2022-10-02T12:09:08.956Z,22.67
2022-10-02T12:11:44.238Z,22.76
2022-10-02T12:14:35.451Z,22.89
2022-10-02T12:17:17.913Z,23.09
2022-10-02T12:20:22.634Z,23.18
2022-10-02T12:23:19.715Z,23.39
2022-10-02T12:26:13.720Z,23.59
2022-10-02T12:28:46.735Z,23.66
2022-10-02T12:31:20.900Z,23.82
2022-10-02T12:34:00.827Z,23.98
2022-10-02T12:36:48.251Z,24.30
2022-10-02T12:39:35.702Z,24.61
2022-10-02T12:42:44.858Z,25.02
2022-10-02T12:45:31.555Z,25.27
2022-10-02T12:48:11.393Z,25.08
2022-10-02T12:51:09.540Z,25.06
2022-10-02T12:54:10.581Z,25.00
2022-10-02T12:57:10.255Z,24.96
2022-10-02T12:59:44.339Z,24.88
2022-10-02T13:03:00.324Z,24.58
2022-10-02T13:05:51.914Z,24.23
2022-10-02T13:08:32.202Z,24.02
2022-10-02T13:11:08.223Z,23.91
2022-10-02T13:14:04.320Z,23.65
2022-10-02T13:16:52.505Z,23.36
2022-10-02T13:19:27.345Z,23.08
2022-10-02T13:22:04.116Z,22.86
2022-10-02T13:24:43.263Z,22.56
2022-10-02T13:27:20.271Z,22.08
2022-10-02T13:29:59.995Z,21.43
2022-10-02T13:32:46.891Z,20.66
2022-10-02T13:35:32.104Z,19.93
2022-10-02T13:38:13.403Z,19.67
2022-10-02T13:40:48.933Z,19.56
2022-10-02T13:43:27.787Z,19.53
2022-10-02T13:46:03.632Z,19.48
2022-10-02T13:48:46.898Z,19.43
2022-10-02T13:51:22.169Z,19.48
2022-10-02T13:54:05.377Z,19.37
2022-10-02T13:56:50.581Z,19.40
2022-10-02T13:59:34.854Z,19.52
2022-10-02T14:02:15.261Z,19.75
2022-10-02T14:04:51.174Z,19.96
2022-10-02T14:07:30.815Z,20.14
2022-10-02T14:10:06.454Z,20.34
2022-10-02T14:12:43.701Z,20.49
2022-10-02T14:15:27.735Z,20.62
2022-10-02T14:18:27.790Z,20.71
2022-10-02T14:21:02.383Z,20.64
2022-10-02T14:23:45.400Z,20.63
2022-10-02T14:26:20.213Z,20.58
2022-10-02T14:29:19.910Z,20.54
2022-10-02T14:32:10.452Z,20.56
2022-10-02T14:35:08.489Z,20.53
2022-10-02T14:37:55.708Z,20.53
2022-10-02T14:40:30.588Z,20.55
2022-10-02T14:43:25.307Z,20.55
2022-10-02T14:46:02.929Z,20.52
2022-10-02T14:48:48.004Z,20.54
2022-10-02T14:51:29.504Z,20.51
2022-10-02T14:54:20.485Z,20.45
2022-10-02T14:57:27.949Z,20.35
2022-10-02T15:00:18.819Z,20.33
2022-10-02T15:03:21.887Z,20.36
2022-10-02T15:06:01.719Z,20.32
2022-10-02T15:08:43.223Z,20.22
2022-10-02T15:11:27.582Z,20.10
2022-10-02T15:14:01.851Z,19.95
2022-10-02T15:17:03.074Z,19.85
2022-10-02T15:19:39.310Z,19.77
2022-10-02T15:22:20.620Z,19.72
2022-10-02T15:24:56.026Z,19.64
2022-10-02T15:27:26.921Z,19.37
2022-10-02T15:30:14.869Z,19.01
2022-10-02T15:33:11.319Z,18.63
2022-10-02T15:36:08.808Z,18.34
2022-10-02T15:38:52.278Z,18.09
2022-10-02T15:41:32.461Z,17.70
2022-10-02T15:44:10.064Z,17.40
2022-10-02T15:46:50.546Z,17.11
2022-10-02T15:49:33.817Z,16.95
2022-10-02T15:52:07.400Z,16.85
2022-10-02T15:54:50.868Z,16.63
2022-10-02T15:57:30.534Z,16.53
2022-10-02T16:00:09.152Z,16.58
2022-10-02T16:02:59.845Z,16.83
2022-10-02T16:05:43.033Z,16.87
2022-10-02T16:08:37.543Z,16.94
2022-10-02T16:11:27.259Z,16.96
2022-10-02T16:14:00.762Z,16.96
2022-10-02T16:16:56.255Z,17.02
2022-10-02T16:19:32.716Z,16.98
2022-10-02T16:22:17.946Z,16.98
2022-10-02T16:25:00.045Z,16.96
2022-10-02T16:27:35.000Z,16.98
2022-10-02T16:30:12.944Z,16.99
2022-10-02T16:32:55.089Z,17.04
2022-10-02T16:35:52.785Z,17.02
2022-10-02T16:38:27.727Z,16.87
2022-10-02T16:40:59.444Z,16.88
2022-10-02T16:43:40.065Z,16.93
2022-10-02T16:46:12.195Z,16.95
2022-10-02T16:48:51.553Z,17.01
2022-10-02T16:51:47.527Z,16.98
2022-10-02T16:54:25.941Z,17.04
2022-10-02T16:57:01.878Z,16.96
2022-10-02T16:59:42.521Z,16.88
2022-10-02T17:02:19.604Z,16.93
2022-10-02T17:04:57.627Z,16.84
2022-10-02T17:07:32.653Z,16.89
2022-10-02T17:10:18.846Z,16.91
2022-10-02T17:12:59.047Z,16.90
2022-10-02T17:15:33.951Z,16.86
2022-10-02T17:18:17.580Z,16.89
2022-10-02T17:20:50.137Z,16.90
2022-10-02T17:23:25.121Z,16.92
2022-10-02T17:26:02.134Z,16.92
2022-10-02T17:28:36.357Z,16.91
2022-10-02T17:31:31.413Z,16.91
2022-10-02T17:34:16.829Z,16.89
2022-10-02T17:36:56.241Z,16.85
2022-10-02T17:39:49.137Z,16.86
2022-10-02T17:42:27.712Z,16.85
2022-10-02T17:45:07.559Z,16.83
2022-10-02T17:47:55.871Z,16.81
2022-10-02T17:50:52.562Z,16.81
2022-10-02T17:54:02.504Z,16.92
2022-10-02T17:56:49.481Z,16.93
2022-10-02T17:59:38.274Z,16.92
2022-10-02T18:02:15.224Z,16.92
2022-10-02T18:05:00.176Z,16.93
2022-10-02T18:07:42.645Z,16.93
2022-10-02T18:10:18.432Z,16.94
2022-10-02T18:13:00.674Z,16.95
2022-10-02T18:15:39.579Z,16.84
2022-10-02T18:18:22.843Z,16.76
2022-10-02T18:21:03.049Z,16.67
2022-10-02T18:24:00.255Z,16.55
2022-10-02T18:26:37.865Z,16.43
2022-10-02T18:29:36.029Z,16.39
2022-10-02T18:32:15.556Z,16.32
2022-10-02T18:35:03.475Z,16.13
2022-10-02T18:37:53.087Z,16.08
2022-10-02T18:40:30.026Z,16.01
2022-10-02T18:43:22.954Z,16.00
2022-10-02T18:46:06.414Z,15.98
2022-10-02T18:49:12.138Z,15.93
2022-10-02T18:52:35.521Z,15.93
2022-10-02T18:55:18.008Z,15.94
2022-10-02T18:57:55.971Z,15.94
2022-10-02T19:00:29.661Z,15.94
2022-10-02T19:03:18.972Z,15.96
2022-10-02T19:05:54.616Z,15.92
2022-10-02T19:08:31.318Z,15.88
2022-10-02T19:11:02.780Z,15.87
2022-10-02T19:13:42.745Z,15.83
2022-10-02T19:16:22.334Z,15.79
2022-10-02T19:19:11.461Z,15.74
2022-10-02T19:21:41.941Z,15.67
2022-10-02T19:24:14.702Z,15.61
2022-10-02T19:26:50.238Z,15.57
2022-10-02T19:29:27.699Z,15.54
2022-10-02T19:32:00.251Z,15.53
2022-10-02T19:34:32.800Z,15.52
2022-10-02T19:37:07.065Z,15.49
2022-10-02T19:39:40.723Z,15.49
2022-10-02T19:42:14.388Z,15.46
2022-10-02T19:44:47.180Z,15.43
2022-10-02T19:47:21.461Z,15.38
2022-10-02T19:49:51.844Z,15.38
2022-10-02T19:52:35.620Z,15.37
2022-10-02T19:55:24.480Z,15.34
2022-10-02T19:57:58.032Z,15.32
2022-10-02T20:00:28.627Z,15.33
2022-10-02T20:02:59.156Z,15.32
2022-10-02T20:05:33.583Z,15.31
2022-10-02T20:08:11.632Z,15.31
2022-10-02T20:10:51.792Z,15.29
2022-10-02T20:13:24.682Z,15.26
2022-10-02T20:16:17.051Z,15.24
2022-10-02T20:18:50.039Z,15.24
2022-10-02T20:21:44.473Z,15.13
2022-10-02T20:24:20.303Z,15.15
2022-10-02T20:26:54.097Z,15.20
2022-10-02T20:29:26.933Z,15.16
2022-10-02T20:31:59.189Z,15.16
2022-10-02T20:34:34.248Z,15.15
2022-10-02T20:37:08.584Z,15.12
2022-10-02T20:39:40.764Z,15.09
2022-10-02T20:42:16.729Z,15.08
2022-10-02T20:44:46.104Z,15.08
2022-10-02T20:47:40.791Z,15.05
2022-10-02T20:50:27.031Z,15.05
2022-10-02T20:53:15.488Z,15.05
2022-10-02T20:55:50.453Z,15.02
2022-10-02T20:58:31.708Z,15.01
2022-10-02T21:01:18.813Z,14.99
2022-10-02T21:04:11.893Z,14.99
2022-10-02T21:07:05.731Z,15.03
2022-10-02T21:09:57.394Z,15.05
2022-10-02T21:12:52.433Z,15.06
2022-10-02T21:15:39.422Z,15.09
2022-10-02T21:18:24.610Z,15.11
2022-10-02T21:21:16.438Z,15.11
2022-10-02T21:24:14.315Z,15.12
2022-10-02T21:27:13.884Z,15.10
2022-10-02T21:29:54.051Z,15.14
2022-10-02T21:32:35.469Z,15.16
2022-10-02T21:35:14.631Z,15.18
2022-10-02T21:38:02.050Z,15.20
2022-10-02T21:41:05.051Z,15.24
2022-10-02T21:44:03.347Z,15.27
2022-10-02T21:47:06.650Z,15.31
2022-10-02T21:50:28.169Z,15.34
2022-10-02T21:53:51.017Z,15.37
2022-10-02T21:56:52.435Z,15.38
2022-10-02T22:00:21.260Z,15.39
2022-10-02T22:03:16.553Z,15.40
2022-10-02T22:06:18.043Z,15.40
2022-10-02T22:09:01.575Z,15.38
2022-10-02T22:11:38.232Z,15.37
2022-10-02T22:14:11.337Z,15.37
2022-10-02T22:16:47.820Z,15.36
2022-10-02T22:19:34.220Z,15.36
2022-10-02T22:22:13.752Z,15.39
2022-10-02T22:24:57.215Z,15.38
2022-10-02T22:27:53.898Z,15.40
2022-10-02T22:30:25.653Z,15.45
2022-10-02T22:33:10.581Z,15.46
2022-10-02T22:36:03.152Z,15.41
2022-10-02T22:38:34.169Z,15.37
2022-10-02T22:41:08.469Z,15.35
2022-10-02T22:43:48.729Z,15.33
2022-10-02T22:46:24.118Z,15.30
2022-10-02T22:48:58.823Z,15.25
2022-10-02T22:51:37.284Z,15.21
2022-10-02T22:54:16.795Z,15.17
2022-10-02T22:56:53.270Z,15.04
2022-10-02T22:59:29.222Z,14.97
2022-10-02T23:02:04.378Z,14.94
2022-10-02T23:04:39.711Z,14.94
2022-10-02T23:07:15.965Z,14.95
2022-10-02T23:09:49.613Z,14.94
2022-10-02T23:12:25.405Z,14.96
2022-10-02T23:15:18.567Z,14.97
2022-10-02T23:17:52.103Z,14.96
2022-10-02T23:20:28.333Z,14.97
2022-10-02T23:23:01.745Z,15.00
2022-10-02T23:25:36.314Z,15.04
2022-10-02T23:28:07.452Z,15.09
2022-10-02T23:30:39.577Z,15.12
2022-10-02T23:33:22.615Z,15.12
2022-10-02T23:35:55.862Z,15.14
2022-10-02T23:38:28.309Z,15.19
2022-10-02T23:41:24.917Z,15.23
2022-10-02T23:44:02.894Z,15.25
2022-10-02T23:46:36.364Z,15.23
2022-10-02T23:49:05.578Z,15.26
2022-10-02T23:51:41.915Z,15.28
2022-10-02T23:54:28.892Z,15.32
2022-10-02T23:57:12.085Z,15.35
2022-10-02T23:59:55.344Z,15.35
